sensor_id;sensor_type;location;lat;lon;timestamp;temperature;humidity
39859;DHT22;25528;47.810;12.960;2022-08-19T00:01:37;25.20;59.40
39859;DHT22;25528;47.810;12.960;2022-08-19T00:04:06;25.20;59.40
39859;DHT22;25528;47.810;12.960;2022-08-19T00:06:33;25.10;59.40
39859;DHT22;25528;47.810;12.960;2022-08-19T00:08:59;25.10;59.40
39859;DHT22;25528;47.810;12.960;2022-08-19T00:11:27;25.10;59.40
39859;DHT22;25528;47.810;12.960;2022-08-19T00:13:56;25.10;59.40
39859;DHT22;25528;47.810;12.960;2022-08-19T00:16:24;25.10;59.40
39859;DHT22;25528;47.810;12.960;2022-08-19T00:18:50;25.10;59.40
39859;DHT22;25528;47.810;12.960;2022-08-19T00:21:15;25.10;59.40
39859;DHT22;25528;47.810;12.960;2022-08-19T00:23:42;25.10;59.50
39859;DHT22;25528;47.810;12.960;2022-08-19T00:26:09;25.10;59.50
39859;DHT22;25528;47.810;12.960;2022-08-19T00:28:35;25.10;59.40
39859;DHT22;25528;47.810;12.960;2022-08-19T00:31:02;25.10;59.50
39859;DHT22;25528;47.810;12.960;2022-08-19T00:33:29;25.10;59.50
39859;DHT22;25528;47.810;12.960;2022-08-19T00:35:58;25.10;59.50
39859;DHT22;25528;47.810;12.960;2022-08-19T00:38:24;25.10;59.50
39859;DHT22;25528;47.810;12.960;2022-08-19T00:40:50;25.10;59.50
39859;DHT22;25528;47.810;12.960;2022-08-19T00:43:19;25.10;59.50
39859;DHT22;25528;47.810;12.960;2022-08-19T00:45:45;25.10;59.60
39859;DHT22;25528;47.810;12.960;2022-08-19T00:48:11;25.10;59.50
39859;DHT22;25528;47.810;12.960;2022-08-19T00:50:39;25.10;59.60
39859;DHT22;25528;47.810;12.960;2022-08-19T00:53:06;25.10;59.60
39859;DHT22;25528;47.810;12.960;2022-08-19T00:55:33;25.10;59.60
39859;DHT22;25528;47.810;12.960;2022-08-19T00:58:05;25.10;59.60
39859;DHT22;25528;47.810;12.960;2022-08-19T01:00:33;25.00;59.60
39859;DHT22;25528;47.810;12.960;2022-08-19T01:03:07;25.10;59.60
39859;DHT22;25528;47.810;12.960;2022-08-19T01:05:34;25.10;59.70
39859;DHT22;25528;47.810;12.960;2022-08-19T01:08:02;25.10;59.60
39859;DHT22;25528;47.810;12.960;2022-08-19T01:10:32;25.10;59.60
39859;DHT22;25528;47.810;12.960;2022-08-19T01:13:01;25.10;59.60
39859;DHT22;25528;47.810;12.960;2022-08-19T01:15:31;25.00;59.70
39859;DHT22;25528;47.810;12.960;2022-08-19T01:17:59;25.10;59.60
39859;DHT22;25528;47.810;12.960;2022-08-19T01:20:26;25.10;59.70
39859;DHT22;25528;47.810;12.960;2022-08-19T01:22:54;25.00;59.60
39859;DHT22;25528;47.810;12.960;2022-08-19T01:25:27;25.00;59.60
39859;DHT22;25528;47.810;12.960;2022-08-19T01:27:53;25.00;59.60
39859;DHT22;25528;47.810;12.960;2022-08-19T01:30:27;25.00;59.60
39859;DHT22;25528;47.810;12.960;2022-08-19T01:32:53;25.00;59.60
39859;DHT22;25528;47.810;12.960;2022-08-19T01:35:21;25.00;59.60
39859;DHT22;25528;47.810;12.960;2022-08-19T01:38:01;25.00;59.60
39859;DHT22;25528;47.810;12.960;2022-08-19T01:40:30;25.00;59.60
39859;DHT22;25528;47.810;12.960;2022-08-19T01:42:57;25.00;59.70
39859;DHT22;25528;47.810;12.960;2022-08-19T01:45:24;25.00;59.70
39859;DHT22;25528;47.810;12.960;2022-08-19T01:47:50;25.00;59.70
39859;DHT22;25528;47.810;12.960;2022-08-19T01:50:17;25.00;59.70
39859;DHT22;25528;47.810;12.960;2022-08-19T01:52:44;25.00;59.70
39859;DHT22;25528;47.810;12.960;2022-08-19T01:55:14;25.00;59.70
39859;DHT22;25528;47.810;12.960;2022-08-19T01:57:43;25.00;59.70
39859;DHT22;25528;47.810;12.960;2022-08-19T02:00:12;25.00;59.70
39859;DHT22;25528;47.810;12.960;2022-08-19T02:02:39;25.00;59.70
39859;DHT22;25528;47.810;12.960;2022-08-19T02:05:05;25.00;59.80
39859;DHT22;25528;47.810;12.960;2022-08-19T02:07:32;25.00;59.80
39859;DHT22;25528;47.810;12.960;2022-08-19T02:09:58;25.00;59.80
39859;DHT22;25528;47.810;12.960;2022-08-19T02:12:23;25.00;59.80
39859;DHT22;25528;47.810;12.960;2022-08-19T02:14:49;25.00;59.80
39859;DHT22;25528;47.810;12.960;2022-08-19T02:17:15;25.00;59.80
39859;DHT22;25528;47.810;12.960;2022-08-19T02:19:40;25.00;59.80
39859;DHT22;25528;47.810;12.960;2022-08-19T02:22:06;25.00;59.80
39859;DHT22;25528;47.810;12.960;2022-08-19T02:24:32;25.00;59.90
39859;DHT22;25528;47.810;12.960;2022-08-19T02:26:57;25.00;59.80
39859;DHT22;25528;47.810;12.960;2022-08-19T02:29:24;25.00;59.80
39859;DHT22;25528;47.810;12.960;2022-08-19T02:31:49;25.00;59.80
39859;DHT22;25528;47.810;12.960;2022-08-19T02:34:16;24.90;59.80
39859;DHT22;25528;47.810;12.960;2022-08-19T02:36:41;24.90;59.80
39859;DHT22;25528;47.810;12.960;2022-08-19T02:39:07;24.90;59.80
39859;DHT22;25528;47.810;12.960;2022-08-19T02:41:33;24.90;59.80
39859;DHT22;25528;47.810;12.960;2022-08-19T02:44:00;24.90;59.80
39859;DHT22;25528;47.810;12.960;2022-08-19T02:46:29;25.00;59.90
39859;DHT22;25528;47.810;12.960;2022-08-19T02:48:58;24.90;59.80
39859;DHT22;25528;47.810;12.960;2022-08-19T02:51:28;24.90;59.90
39859;DHT22;25528;47.810;12.960;2022-08-19T02:53:53;25.00;60.00
39859;DHT22;25528;47.810;12.960;2022-08-19T02:56:20;24.90;59.90
39859;DHT22;25528;47.810;12.960;2022-08-19T02:58:45;24.90;59.90
39859;DHT22;25528;47.810;12.960;2022-08-19T03:01:20;24.90;59.90
39859;DHT22;25528;47.810;12.960;2022-08-19T03:03:46;24.90;60.00
39859;DHT22;25528;47.810;12.960;2022-08-19T03:06:14;24.90;59.90
39859;DHT22;25528;47.810;12.960;2022-08-19T03:08:45;24.90;60.00
39859;DHT22;25528;47.810;12.960;2022-08-19T03:11:20;24.90;60.00
39859;DHT22;25528;47.810;12.960;2022-08-19T03:13:47;24.90;60.20
39859;DHT22;25528;47.810;12.960;2022-08-19T03:16:16;24.90;60.10
39859;DHT22;25528;47.810;12.960;2022-08-19T03:18:42;24.90;60.00
39859;DHT22;25528;47.810;12.960;2022-08-19T03:21:08;24.90;61.40
39859;DHT22;25528;47.810;12.960;2022-08-19T03:23:34;24.90;60.30
39859;DHT22;25528;47.810;12.960;2022-08-19T03:26:04;25.00;62.70
39859;DHT22;25528;47.810;12.960;2022-08-19T03:28:30;25.00;63.00
39859;DHT22;25528;47.810;12.960;2022-08-19T03:31:03;25.00;62.70
39859;DHT22;25528;47.810;12.960;2022-08-19T03:33:29;25.10;63.10
39859;DHT22;25528;47.810;12.960;2022-08-19T03:36:05;25.20;62.90
39859;DHT22;25528;47.810;12.960;2022-08-19T03:38:33;25.20;63.00
39859;DHT22;25528;47.810;12.960;2022-08-19T03:41:03;25.30;62.90
39859;DHT22;25528;47.810;12.960;2022-08-19T03:43:32;25.30;63.20
39859;DHT22;25528;47.810;12.960;2022-08-19T03:46:07;25.30;62.40
39859;DHT22;25528;47.810;12.960;2022-08-19T03:48:34;25.30;63.30
39859;DHT22;25528;47.810;12.960;2022-08-19T03:51:00;25.30;63.30
39859;DHT22;25528;47.810;12.960;2022-08-19T03:53:27;25.30;62.90
39859;DHT22;25528;47.810;12.960;2022-08-19T03:55:54;25.30;62.80
39859;DHT22;25528;47.810;12.960;2022-08-19T03:58:21;25.30;62.80
39859;DHT22;25528;47.810;12.960;2022-08-19T04:00:47;25.30;63.00
39859;DHT22;25528;47.810;12.960;2022-08-19T04:03:12;25.30;63.00
39859;DHT22;25528;47.810;12.960;2022-08-19T04:05:38;25.30;62.80
39859;DHT22;25528;47.810;12.960;2022-08-19T04:08:04;25.30;61.60
39859;DHT22;25528;47.810;12.960;2022-08-19T04:10:35;25.30;62.80
39859;DHT22;25528;47.810;12.960;2022-08-19T04:13:03;25.30;62.40
39859;DHT22;25528;47.810;12.960;2022-08-19T04:15:29;25.30;62.60
39859;DHT22;25528;47.810;12.960;2022-08-19T04:17:56;25.30;62.80
39859;DHT22;25528;47.810;12.960;2022-08-19T04:20:22;25.30;62.90
39859;DHT22;25528;47.810;12.960;2022-08-19T04:22:47;25.30;63.10
39859;DHT22;25528;47.810;12.960;2022-08-19T04:25:13;25.30;63.20
39859;DHT22;25528;47.810;12.960;2022-08-19T04:27:39;25.20;62.80
39859;DHT22;25528;47.810;12.960;2022-08-19T04:30:05;25.20;62.90
39859;DHT22;25528;47.810;12.960;2022-08-19T04:32:30;25.20;63.00
39859;DHT22;25528;47.810;12.960;2022-08-19T04:34:57;25.20;63.10
39859;DHT22;25528;47.810;12.960;2022-08-19T04:37:24;25.20;62.10
39859;DHT22;25528;47.810;12.960;2022-08-19T04:39:51;25.20;62.50
39859;DHT22;25528;47.810;12.960;2022-08-19T04:42:36;25.10;62.10
39859;DHT22;25528;47.810;12.960;2022-08-19T04:45:10;25.10;62.60
39859;DHT22;25528;47.810;12.960;2022-08-19T04:47:44;25.10;63.10
39859;DHT22;25528;47.810;12.960;2022-08-19T04:50:10;25.10;63.00
39859;DHT22;25528;47.810;12.960;2022-08-19T04:52:40;25.10;63.20
39859;DHT22;25528;47.810;12.960;2022-08-19T04:55:10;25.10;63.10
39859;DHT22;25528;47.810;12.960;2022-08-19T04:57:39;25.10;63.50
39859;DHT22;25528;47.810;12.960;2022-08-19T05:00:09;25.10;63.80
39859;DHT22;25528;47.810;12.960;2022-08-19T05:02:35;25.10;64.50
39859;DHT22;25528;47.810;12.960;2022-08-19T05:05:01;25.10;62.70
39859;DHT22;25528;47.810;12.960;2022-08-19T05:07:27;25.00;64.00
39859;DHT22;25528;47.810;12.960;2022-08-19T05:09:52;25.00;65.10
39859;DHT22;25528;47.810;12.960;2022-08-19T05:12:18;25.00;63.30
39859;DHT22;25528;47.810;12.960;2022-08-19T05:14:45;25.00;62.90
39859;DHT22;25528;47.810;12.960;2022-08-19T05:17:13;25.00;62.90
39859;DHT22;25528;47.810;12.960;2022-08-19T05:19:39;25.00;63.40
39859;DHT22;25528;47.810;12.960;2022-08-19T05:22:23;25.00;63.40
39859;DHT22;25528;47.810;12.960;2022-08-19T05:24:58;25.00;64.40
39859;DHT22;25528;47.810;12.960;2022-08-19T05:27:24;25.00;63.50
39859;DHT22;25528;47.810;12.960;2022-08-19T05:29:50;25.00;63.70
39859;DHT22;25528;47.810;12.960;2022-08-19T05:32:16;25.00;64.20
39859;DHT22;25528;47.810;12.960;2022-08-19T05:34:41;25.00;63.50
39859;DHT22;25528;47.810;12.960;2022-08-19T05:37:08;25.00;65.70
39859;DHT22;25528;47.810;12.960;2022-08-19T05:39:35;25.00;65.10
39859;DHT22;25528;47.810;12.960;2022-08-19T05:42:05;25.00;64.10
39859;DHT22;25528;47.810;12.960;2022-08-19T05:44:37;25.00;64.10
39859;DHT22;25528;47.810;12.960;2022-08-19T05:47:07;25.00;64.60
39859;DHT22;25528;47.810;12.960;2022-08-19T05:49:36;25.00;63.80
39859;DHT22;25528;47.810;12.960;2022-08-19T05:52:04;25.00;64.80
39859;DHT22;25528;47.810;12.960;2022-08-19T05:54:30;25.00;65.10
39859;DHT22;25528;47.810;12.960;2022-08-19T05:56:56;25.00;64.70
39859;DHT22;25528;47.810;12.960;2022-08-19T05:59:22;25.00;65.70
39859;DHT22;25528;47.810;12.960;2022-08-19T06:01:50;24.90;66.40
39859;DHT22;25528;47.810;12.960;2022-08-19T06:04:18;24.90;66.60
39859;DHT22;25528;47.810;12.960;2022-08-19T06:06:45;24.80;66.70
39859;DHT22;25528;47.810;12.960;2022-08-19T06:09:11;24.80;67.10
39859;DHT22;25528;47.810;12.960;2022-08-19T06:11:40;24.80;67.10
39859;DHT22;25528;47.810;12.960;2022-08-19T06:14:09;24.80;67.30
39859;DHT22;25528;47.810;12.960;2022-08-19T06:16:37;24.80;67.80
39859;DHT22;25528;47.810;12.960;2022-08-19T06:19:08;24.80;67.60
39859;DHT22;25528;47.810;12.960;2022-08-19T06:21:36;24.80;67.60
39859;DHT22;25528;47.810;12.960;2022-08-19T06:24:07;24.70;67.50
39859;DHT22;25528;47.810;12.960;2022-08-19T06:26:35;24.80;67.40
39859;DHT22;25528;47.810;12.960;2022-08-19T06:29:03;24.70;67.30
39859;DHT22;25528;47.810;12.960;2022-08-19T06:31:30;24.70;67.00
39859;DHT22;25528;47.810;12.960;2022-08-19T06:34:00;24.70;67.00
39859;DHT22;25528;47.810;12.960;2022-08-19T06:36:30;24.70;67.40
39859;DHT22;25528;47.810;12.960;2022-08-19T06:39:00;24.60;67.40
39859;DHT22;25528;47.810;12.960;2022-08-19T06:41:28;24.60;67.00
39859;DHT22;25528;47.810;12.960;2022-08-19T06:43:55;24.60;67.10
39859;DHT22;25528;47.810;12.960;2022-08-19T06:46:20;24.60;67.00
39859;DHT22;25528;47.810;12.960;2022-08-19T06:48:47;24.60;67.40
39859;DHT22;25528;47.810;12.960;2022-08-19T06:51:15;24.60;67.30
39859;DHT22;25528;47.810;12.960;2022-08-19T06:53:53;24.50;67.50
39859;DHT22;25528;47.810;12.960;2022-08-19T06:56:21;24.50;67.10
39859;DHT22;25528;47.810;12.960;2022-08-19T06:58:48;24.50;67.10
39859;DHT22;25528;47.810;12.960;2022-08-19T07:01:19;24.60;66.80
39859;DHT22;25528;47.810;12.960;2022-08-19T07:03:45;24.60;66.80
39859;DHT22;25528;47.810;12.960;2022-08-19T07:06:15;24.70;66.50
39859;DHT22;25528;47.810;12.960;2022-08-19T07:08:44;24.70;66.30
39859;DHT22;25528;47.810;12.960;2022-08-19T07:11:13;24.70;66.30
39859;DHT22;25528;47.810;12.960;2022-08-19T07:13:40;24.70;66.50
39859;DHT22;25528;47.810;12.960;2022-08-19T07:16:11;24.70;66.20
39859;DHT22;25528;47.810;12.960;2022-08-19T07:18:37;24.70;66.50
39859;DHT22;25528;47.810;12.960;2022-08-19T07:21:12;24.70;66.50
39859;DHT22;25528;47.810;12.960;2022-08-19T07:23:39;24.70;66.70
39859;DHT22;25528;47.810;12.960;2022-08-19T07:26:15;24.70;66.60
39859;DHT22;25528;47.810;12.960;2022-08-19T07:28:42;24.70;66.50
39859;DHT22;25528;47.810;12.960;2022-08-19T07:31:11;24.70;66.10
39859;DHT22;25528;47.810;12.960;2022-08-19T07:33:37;24.70;65.80
39859;DHT22;25528;47.810;12.960;2022-08-19T07:36:08;24.70;66.80
39859;DHT22;25528;47.810;12.960;2022-08-19T07:38:37;24.80;66.00
39859;DHT22;25528;47.810;12.960;2022-08-19T07:41:05;24.80;65.80
39859;DHT22;25528;47.810;12.960;2022-08-19T07:43:32;24.80;66.10
39859;DHT22;25528;47.810;12.960;2022-08-19T07:45:58;24.80;66.10
39859;DHT22;25528;47.810;12.960;2022-08-19T07:48:26;24.70;65.90
39859;DHT22;25528;47.810;12.960;2022-08-19T07:50:58;24.70;65.70
39859;DHT22;25528;47.810;12.960;2022-08-19T07:53:28;24.80;65.80
39859;DHT22;25528;47.810;12.960;2022-08-19T07:55:55;24.80;65.30
39859;DHT22;25528;47.810;12.960;2022-08-19T07:58:29;24.70;65.40
39859;DHT22;25528;47.810;12.960;2022-08-19T08:00:56;24.70;65.80
39859;DHT22;25528;47.810;12.960;2022-08-19T08:03:23;24.80;65.60
39859;DHT22;25528;47.810;12.960;2022-08-19T08:06:09;24.80;65.70
39859;DHT22;25528;47.810;12.960;2022-08-19T08:08:54;24.70;65.60
39859;DHT22;25528;47.810;12.960;2022-08-19T08:11:59;24.70;65.50
39859;DHT22;25528;47.810;12.960;2022-08-19T08:14:36;24.80;64.90
39859;DHT22;25528;47.810;12.960;2022-08-19T08:17:04;24.80;65.20
39859;DHT22;25528;47.810;12.960;2022-08-19T08:19:31;24.80;65.10
39859;DHT22;25528;47.810;12.960;2022-08-19T08:22:00;24.80;65.10
39859;DHT22;25528;47.810;12.960;2022-08-19T08:24:28;24.80;65.20
39859;DHT22;25528;47.810;12.960;2022-08-19T08:26:58;24.80;65.10
39859;DHT22;25528;47.810;12.960;2022-08-19T08:29:29;24.80;65.00
39859;DHT22;25528;47.810;12.960;2022-08-19T08:31:56;24.80;65.00
39859;DHT22;25528;47.810;12.960;2022-08-19T08:34:23;24.80;64.90
39859;DHT22;25528;47.810;12.960;2022-08-19T08:36:50;24.80;64.80
39859;DHT22;25528;47.810;12.960;2022-08-19T08:39:20;24.80;64.90
39859;DHT22;25528;47.810;12.960;2022-08-19T08:42:21;24.80;65.00
39859;DHT22;25528;47.810;12.960;2022-08-19T08:44:59;24.80;64.60
39859;DHT22;25528;47.810;12.960;2022-08-19T08:47:36;24.80;64.70
39859;DHT22;25528;47.810;12.960;2022-08-19T08:50:07;24.80;64.80
39859;DHT22;25528;47.810;12.960;2022-08-19T08:52:41;24.80;64.60
39859;DHT22;25528;47.810;12.960;2022-08-19T08:55:17;24.80;64.70
39859;DHT22;25528;47.810;12.960;2022-08-19T09:02:48;24.80;64.40
39859;DHT22;25528;47.810;12.960;2022-08-19T09:05:14;24.80;64.40
39859;DHT22;25528;47.810;12.960;2022-08-19T09:07:58;24.80;64.40
39859;DHT22;25528;47.810;12.960;2022-08-19T09:10:40;24.80;64.70
39859;DHT22;25528;47.810;12.960;2022-08-19T09:15:44;24.80;64.40
39859;DHT22;25528;47.810;12.960;2022-08-19T09:18:11;24.80;64.70
39859;DHT22;25528;47.810;12.960;2022-08-19T09:20:37;24.80;64.70
39859;DHT22;25528;47.810;12.960;2022-08-19T09:23:03;24.80;64.40
39859;DHT22;25528;47.810;12.960;2022-08-19T09:25:29;24.80;65.20
39859;DHT22;25528;47.810;12.960;2022-08-19T09:27:58;24.80;64.70
39859;DHT22;25528;47.810;12.960;2022-08-19T09:30:30;24.80;64.10
39859;DHT22;25528;47.810;12.960;2022-08-19T09:32:56;24.80;64.70
39859;DHT22;25528;47.810;12.960;2022-08-19T09:35:25;24.90;64.40
39859;DHT22;25528;47.810;12.960;2022-08-19T09:37:52;24.90;64.60
39859;DHT22;25528;47.810;12.960;2022-08-19T09:40:18;24.90;65.00
39859;DHT22;25528;47.810;12.960;2022-08-19T09:42:45;24.90;65.20
39859;DHT22;25528;47.810;12.960;2022-08-19T09:45:15;24.90;65.20
39859;DHT22;25528;47.810;12.960;2022-08-19T09:47:42;24.90;64.30
39859;DHT22;25528;47.810;12.960;2022-08-19T09:50:10;24.90;64.40
39859;DHT22;25528;47.810;12.960;2022-08-19T09:52:37;25.00;64.80
39859;DHT22;25528;47.810;12.960;2022-08-19T09:55:07;25.00;64.20
39859;DHT22;25528;47.810;12.960;2022-08-19T09:57:34;24.90;64.40
39859;DHT22;25528;47.810;12.960;2022-08-19T10:00:00;25.00;64.70
39859;DHT22;25528;47.810;12.960;2022-08-19T10:02:26;25.00;64.40
39859;DHT22;25528;47.810;12.960;2022-08-19T10:04:52;25.00;63.80
39859;DHT22;25528;47.810;12.960;2022-08-19T10:07:36;25.00;64.20
39859;DHT22;25528;47.810;12.960;2022-08-19T10:10:06;25.00;63.90
39859;DHT22;25528;47.810;12.960;2022-08-19T10:12:33;25.00;64.30
39859;DHT22;25528;47.810;12.960;2022-08-19T10:15:00;25.00;64.20
39859;DHT22;25528;47.810;12.960;2022-08-19T10:17:27;25.00;64.10
39859;DHT22;25528;47.810;12.960;2022-08-19T10:19:53;25.00;64.20
39859;DHT22;25528;47.810;12.960;2022-08-19T10:22:19;25.00;63.50
39859;DHT22;25528;47.810;12.960;2022-08-19T10:24:47;25.00;64.10
39859;DHT22;25528;47.810;12.960;2022-08-19T10:27:15;25.00;64.00
39859;DHT22;25528;47.810;12.960;2022-08-19T10:29:41;25.00;64.20
39859;DHT22;25528;47.810;12.960;2022-08-19T10:32:08;25.00;63.20
39859;DHT22;25528;47.810;12.960;2022-08-19T10:34:38;25.00;64.30
39859;DHT22;25528;47.810;12.960;2022-08-19T10:37:05;25.00;63.60
39859;DHT22;25528;47.810;12.960;2022-08-19T10:39:33;25.00;63.70
39859;DHT22;25528;47.810;12.960;2022-08-19T10:42:04;24.90;63.90
39859;DHT22;25528;47.810;12.960;2022-08-19T10:44:32;24.90;63.90
39859;DHT22;25528;47.810;12.960;2022-08-19T10:46:58;25.00;63.60
39859;DHT22;25528;47.810;12.960;2022-08-19T10:49:24;24.90;64.00
39859;DHT22;25528;47.810;12.960;2022-08-19T10:51:49;24.90;63.50
39859;DHT22;25528;47.810;12.960;2022-08-19T10:54:34;25.00;63.60
39859;DHT22;25528;47.810;12.960;2022-08-19T10:57:18;24.90;63.60
39859;DHT22;25528;47.810;12.960;2022-08-19T10:59:44;24.90;63.50
39859;DHT22;25528;47.810;12.960;2022-08-19T11:02:11;24.90;63.40
39859;DHT22;25528;47.810;12.960;2022-08-19T11:04:38;24.90;63.50
39859;DHT22;25528;47.810;12.960;2022-08-19T11:07:06;24.90;63.60
39859;DHT22;25528;47.810;12.960;2022-08-19T11:09:40;24.90;63.50
39859;DHT22;25528;47.810;12.960;2022-08-19T11:12:07;24.90;63.60
39859;DHT22;25528;47.810;12.960;2022-08-19T11:14:34;24.90;63.70
39859;DHT22;25528;47.810;12.960;2022-08-19T11:17:01;24.90;63.80
39859;DHT22;25528;47.810;12.960;2022-08-19T11:19:27;24.90;63.40
39859;DHT22;25528;47.810;12.960;2022-08-19T11:21:53;24.90;63.50
39859;DHT22;25528;47.810;12.960;2022-08-19T11:24:24;24.90;63.50
39859;DHT22;25528;47.810;12.960;2022-08-19T11:26:51;25.00;63.40
39859;DHT22;25528;47.810;12.960;2022-08-19T11:29:20;25.00;63.80
39859;DHT22;25528;47.810;12.960;2022-08-19T11:31:48;25.00;64.10
39859;DHT22;25528;47.810;12.960;2022-08-19T11:34:24;25.00;63.90
39859;DHT22;25528;47.810;12.960;2022-08-19T11:36:51;25.00;64.30
39859;DHT22;25528;47.810;12.960;2022-08-19T11:39:19;25.00;64.20
39859;DHT22;25528;47.810;12.960;2022-08-19T11:41:45;25.00;63.50
39859;DHT22;25528;47.810;12.960;2022-08-19T11:44:11;25.00;63.30
39859;DHT22;25528;47.810;12.960;2022-08-19T11:46:40;25.00;63.50
39859;DHT22;25528;47.810;12.960;2022-08-19T11:49:06;25.00;63.50
39859;DHT22;25528;47.810;12.960;2022-08-19T11:51:33;25.00;63.30
39859;DHT22;25528;47.810;12.960;2022-08-19T11:53:59;25.00;63.80
39859;DHT22;25528;47.810;12.960;2022-08-19T11:56:26;25.00;63.90
39859;DHT22;25528;47.810;12.960;2022-08-19T11:58:53;25.00;63.00
39859;DHT22;25528;47.810;12.960;2022-08-19T12:01:21;25.10;63.70
39859;DHT22;25528;47.810;12.960;2022-08-19T12:03:48;25.10;63.00
39859;DHT22;25528;47.810;12.960;2022-08-19T12:06:22;25.10;63.20
39859;DHT22;25528;47.810;12.960;2022-08-19T12:08:55;25.10;63.10
39859;DHT22;25528;47.810;12.960;2022-08-19T12:11:22;25.10;63.30
39859;DHT22;25528;47.810;12.960;2022-08-19T12:13:49;25.10;63.20
39859;DHT22;25528;47.810;12.960;2022-08-19T12:16:18;25.10;63.00
39859;DHT22;25528;47.810;12.960;2022-08-19T12:18:44;25.10;62.90
39859;DHT22;25528;47.810;12.960;2022-08-19T12:21:15;25.10;63.10
39859;DHT22;25528;47.810;12.960;2022-08-19T12:23:42;25.10;63.50
39859;DHT22;25528;47.810;12.960;2022-08-19T12:26:10;25.20;63.40
39859;DHT22;25528;47.810;12.960;2022-08-19T12:28:36;25.10;62.60
39859;DHT22;25528;47.810;12.960;2022-08-19T12:31:02;25.10;62.80
39859;DHT22;25528;47.810;12.960;2022-08-19T12:33:28;25.10;62.60
39859;DHT22;25528;47.810;12.960;2022-08-19T12:35:54;25.10;62.70
39859;DHT22;25528;47.810;12.960;2022-08-19T12:38:25;25.10;63.10
39859;DHT22;25528;47.810;12.960;2022-08-19T12:40:50;25.10;63.30
39859;DHT22;25528;47.810;12.960;2022-08-19T12:43:17;25.10;63.10
39859;DHT22;25528;47.810;12.960;2022-08-19T12:45:45;25.20;63.60
39859;DHT22;25528;47.810;12.960;2022-08-19T12:48:11;25.20;63.50
39859;DHT22;25528;47.810;12.960;2022-08-19T12:50:41;25.20;63.30
39859;DHT22;25528;47.810;12.960;2022-08-19T12:53:07;25.20;63.50
39859;DHT22;25528;47.810;12.960;2022-08-19T12:55:33;25.20;63.40
39859;DHT22;25528;47.810;12.960;2022-08-19T12:57:58;25.10;63.10
39859;DHT22;25528;47.810;12.960;2022-08-19T13:00:27;25.10;62.90
39859;DHT22;25528;47.810;12.960;2022-08-19T13:02:53;25.10;63.50
39859;DHT22;25528;47.810;12.960;2022-08-19T13:05:25;25.20;63.60
39859;DHT22;25528;47.810;12.960;2022-08-19T13:07:54;25.20;63.50
39859;DHT22;25528;47.810;12.960;2022-08-19T13:10:23;25.20;63.60
39859;DHT22;25528;47.810;12.960;2022-08-19T13:12:50;25.20;64.00
39859;DHT22;25528;47.810;12.960;2022-08-19T13:15:18;25.20;63.80
39859;DHT22;25528;47.810;12.960;2022-08-19T13:17:48;25.20;63.60
39859;DHT22;25528;47.810;12.960;2022-08-19T13:20:15;25.20;63.80
39859;DHT22;25528;47.810;12.960;2022-08-19T13:22:42;25.20;63.70
39859;DHT22;25528;47.810;12.960;2022-08-19T13:25:08;25.20;63.70
39859;DHT22;25528;47.810;12.960;2022-08-19T13:27:35;25.20;63.40
39859;DHT22;25528;47.810;12.960;2022-08-19T13:30:02;25.20;63.70
39859;DHT22;25528;47.810;12.960;2022-08-19T13:32:47;25.20;63.70
39859;DHT22;25528;47.810;12.960;2022-08-19T13:35:32;25.20;63.70
39859;DHT22;25528;47.810;12.960;2022-08-19T13:37:57;25.20;63.70
39859;DHT22;25528;47.810;12.960;2022-08-19T13:40:24;25.20;63.70
39859;DHT22;25528;47.810;12.960;2022-08-19T13:42:53;25.20;63.80
39859;DHT22;25528;47.810;12.960;2022-08-19T13:45:22;25.20;63.70
39859;DHT22;25528;47.810;12.960;2022-08-19T13:47:52;25.10;63.60
39859;DHT22;25528;47.810;12.960;2022-08-19T13:50:22;25.20;63.70
39859;DHT22;25528;47.810;12.960;2022-08-19T13:52:49;25.10;63.70
39859;DHT22;25528;47.810;12.960;2022-08-19T13:55:15;25.20;64.90
39859;DHT22;25528;47.810;12.960;2022-08-19T13:57:41;25.20;64.60
39859;DHT22;25528;47.810;12.960;2022-08-19T14:00:10;25.20;64.00
39859;DHT22;25528;47.810;12.960;2022-08-19T14:02:37;25.20;64.50
39859;DHT22;25528;47.810;12.960;2022-08-19T14:05:05;25.20;64.10
39859;DHT22;25528;47.810;12.960;2022-08-19T14:07:31;25.20;64.20
39859;DHT22;25528;47.810;12.960;2022-08-19T14:09:57;25.30;64.30
39859;DHT22;25528;47.810;12.960;2022-08-19T14:12:23;25.30;64.00
39859;DHT22;25528;47.810;12.960;2022-08-19T14:14:49;25.30;64.00
39859;DHT22;25528;47.810;12.960;2022-08-19T14:17:15;25.20;64.00
39859;DHT22;25528;47.810;12.960;2022-08-19T14:19:42;25.30;64.20
39859;DHT22;25528;47.810;12.960;2022-08-19T14:22:08;25.30;64.10
39859;DHT22;25528;47.810;12.960;2022-08-19T14:24:33;25.30;63.90
39859;DHT22;25528;47.810;12.960;2022-08-19T14:27:00;25.30;64.00
39859;DHT22;25528;47.810;12.960;2022-08-19T14:29:25;25.30;63.90
39859;DHT22;25528;47.810;12.960;2022-08-19T14:31:54;25.30;64.00
39859;DHT22;25528;47.810;12.960;2022-08-19T14:34:21;25.30;64.00
39859;DHT22;25528;47.810;12.960;2022-08-19T14:36:47;25.30;63.90
39859;DHT22;25528;47.810;12.960;2022-08-19T14:39:13;25.30;63.90
39859;DHT22;25528;47.810;12.960;2022-08-19T14:41:40;25.30;64.00
39859;DHT22;25528;47.810;12.960;2022-08-19T14:44:07;25.30;63.70
39859;DHT22;25528;47.810;12.960;2022-08-19T14:46:35;25.30;63.90
39859;DHT22;25528;47.810;12.960;2022-08-19T14:49:00;25.30;63.70
39859;DHT22;25528;47.810;12.960;2022-08-19T14:51:26;25.30;63.80
39859;DHT22;25528;47.810;12.960;2022-08-19T14:53:53;25.30;64.00
39859;DHT22;25528;47.810;12.960;2022-08-19T14:56:21;25.30;63.70
39859;DHT22;25528;47.810;12.960;2022-08-19T14:58:47;25.30;63.90
39859;DHT22;25528;47.810;12.960;2022-08-19T15:01:17;25.30;63.70
39859;DHT22;25528;47.810;12.960;2022-08-19T15:03:42;25.30;63.40
39859;DHT22;25528;47.810;12.960;2022-08-19T15:06:08;25.30;63.50
39859;DHT22;25528;47.810;12.960;2022-08-19T15:08:36;25.30;63.30
39859;DHT22;25528;47.810;12.960;2022-08-19T15:11:02;25.30;63.40
39859;DHT22;25528;47.810;12.960;2022-08-19T15:13:29;25.30;63.20
39859;DHT22;25528;47.810;12.960;2022-08-19T15:15:56;25.30;63.00
39859;DHT22;25528;47.810;12.960;2022-08-19T15:18:23;25.20;63.00
39859;DHT22;25528;47.810;12.960;2022-08-19T15:20:49;25.30;63.00
39859;DHT22;25528;47.810;12.960;2022-08-19T15:23:16;25.20;62.90
39859;DHT22;25528;47.810;12.960;2022-08-19T15:25:43;25.20;62.80
39859;DHT22;25528;47.810;12.960;2022-08-19T15:28:09;25.20;62.90
39859;DHT22;25528;47.810;12.960;2022-08-19T15:30:37;25.20;62.90